sensor_id;sensor_type;location;lat;lon;timestamp;pressure;altitude;pressure_sealevel;temperature;humidity
5988;BME280;3021;51.000;6.980;2023-05-23T00:00:29;68157.59;;;16.64;100.00
5988;BME280;3021;51.000;6.980;2023-05-23T00:02:57;68161.53;;;16.65;100.00
5988;BME280;3021;51.000;6.980;2023-05-23T00:05:24;68155.25;;;16.62;100.00
5988;BME280;3021;51.000;6.980;2023-05-23T00:07:50;68155.13;;;16.59;100.00
5988;BME280;3021;51.000;6.980;2023-05-23T00:10:16;68146.56;;;16.54;100.00
5988;BME280;3021;51.000;6.980;2023-05-23T00:12:41;68131.47;;;16.40;100.00
5988;BME280;3021;51.000;6.980;2023-05-23T00:15:07;68122.75;;;16.33;100.00
5988;BME280;3021;51.000;6.980;2023-05-23T00:17:34;68119.41;;;16.32;100.00
5988;BME280;3021;51.000;6.980;2023-05-23T00:20:02;68114.63;;;16.26;100.00
5988;BME280;3021;51.000;6.980;2023-05-23T00:22:28;68103.59;;;16.16;100.00
5988;BME280;3021;51.000;6.980;2023-05-23T00:24:53;68092.69;;;16.09;100.00
5988;BME280;3021;51.000;6.980;2023-05-23T00:27:19;68093.16;;;16.06;100.00
5988;BME280;3021;51.000;6.980;2023-05-23T00:29:44;68094.31;;;16.08;100.00
5988;BME280;3021;51.000;6.980;2023-05-23T00:32:09;68097.09;;;16.08;100.00
5988;BME280;3021;51.000;6.980;2023-05-23T00:34:34;68089.06;;;16.03;100.00
5988;BME280;3021;51.000;6.980;2023-05-23T00:37:02;68097.19;;;16.10;100.00
5988;BME280;3021;51.000;6.980;2023-05-23T00:39:28;68110.44;;;16.19;100.00
5988;BME280;3021;51.000;6.980;2023-05-23T00:41:54;68119.84;;;16.30;100.00
5988;BME280;3021;51.000;6.980;2023-05-23T00:44:20;68134.94;;;16.44;100.00
5988;BME280;3021;51.000;6.980;2023-05-23T00:46:49;68155.00;;;16.56;100.00
5988;BME280;3021;51.000;6.980;2023-05-23T00:49:15;68148.88;;;16.56;100.00
5988;BME280;3021;51.000;6.980;2023-05-23T00:51:44;68163.97;;;16.69;100.00
5988;BME280;3021;51.000;6.980;2023-05-23T00:54:10;68173.72;;;16.75;100.00
5988;BME280;3021;51.000;6.980;2023-05-23T00:56:37;68179.66;;;16.83;100.00
5988;BME280;3021;51.000;6.980;2023-05-23T00:59:02;68176.16;;;16.80;100.00
5988;BME280;3021;51.000;6.980;2023-05-23T01:01:29;68174.88;;;16.76;100.00
5988;BME280;3021;51.000;6.980;2023-05-23T01:03:54;68178.03;;;16.84;100.00
5988;BME280;3021;51.000;6.980;2023-05-23T01:06:20;68184.19;;;16.85;100.00
5988;BME280;3021;51.000;6.980;2023-05-23T01:08:46;68180.09;;;16.81;100.00
5988;BME280;3021;51.000;6.980;2023-05-23T01:11:40;68173.41;;;16.80;100.00
5988;BME280;3021;51.000;6.980;2023-05-23T01:14:10;68180.25;;;16.84;100.00
5988;BME280;3021;51.000;6.980;2023-05-23T01:19:30;68181.97;;;16.85;100.00
5988;BME280;3021;51.000;6.980;2023-05-23T01:22:05;68189.56;;;16.92;100.00
5988;BME280;3021;51.000;6.980;2023-05-23T01:24:53;68190.59;;;16.90;100.00
5988;BME280;3021;51.000;6.980;2023-05-23T01:30:09;68202.19;;;17.01;100.00
5988;BME280;3021;51.000;6.980;2023-05-23T01:32:36;68193.03;;;16.95;100.00
5988;BME280;3021;51.000;6.980;2023-05-23T01:35:01;68192.00;;;16.97;100.00
5988;BME280;3021;51.000;6.980;2023-05-23T01:37:27;68185.03;;;16.90;100.00
5988;BME280;3021;51.000;6.980;2023-05-23T01:39:53;68199.44;;;17.01;100.00
5988;BME280;3021;51.000;6.980;2023-05-23T01:42:19;68197.09;;;16.99;100.00
5988;BME280;3021;51.000;6.980;2023-05-23T01:44:45;68176.16;;;16.80;100.00
5988;BME280;3021;51.000;6.980;2023-05-23T01:47:11;68173.84;;;16.78;100.00
5988;BME280;3021;51.000;6.980;2023-05-23T01:49:38;68165.25;;;16.73;100.00
5988;BME280;3021;51.000;6.980;2023-05-23T01:52:04;68153.78;;;16.65;100.00
5988;BME280;3021;51.000;6.980;2023-05-23T01:54:36;68166.44;;;16.74;100.00
5988;BME280;3021;51.000;6.980;2023-05-23T01:57:01;68171.50;;;16.76;100.00
5988;BME280;3021;51.000;6.980;2023-05-23T01:59:27;68168.63;;;16.73;100.00
5988;BME280;3021;51.000;6.980;2023-05-23T02:01:52;68151.78;;;16.58;100.00
5988;BME280;3021;51.000;6.980;2023-05-23T02:04:18;68154.69;;;16.61;100.00
5988;BME280;3021;51.000;6.980;2023-05-23T02:06:43;68160.34;;;16.64;100.00
5988;BME280;3021;51.000;6.980;2023-05-23T02:09:08;68144.81;;;16.52;100.00
5988;BME280;3021;51.000;6.980;2023-05-23T02:11:34;68140.88;;;16.51;100.00
5988;BME280;3021;51.000;6.980;2023-05-23T02:14:00;68144.69;;;16.50;100.00
5988;BME280;3021;51.000;6.980;2023-05-23T02:16:27;68144.09;;;16.49;100.00
5988;BME280;3021;51.000;6.980;2023-05-23T02:18:52;68150.59;;;16.57;100.00
5988;BME280;3021;51.000;6.980;2023-05-23T02:21:23;68159.47;;;16.68;100.00
5988;BME280;3021;51.000;6.980;2023-05-23T02:23:49;68158.63;;;16.62;100.00
5988;BME280;3021;51.000;6.980;2023-05-23T02:26:14;68158.03;;;16.62;100.00
5988;BME280;3021;51.000;6.980;2023-05-23T02:28:40;68145.38;;;16.53;100.00
5988;BME280;3021;51.000;6.980;2023-05-23T02:31:05;68150.75;;;16.60;100.00
5988;BME280;3021;51.000;6.980;2023-05-23T02:33:31;68151.19;;;16.58;100.00
5988;BME280;3021;51.000;6.980;2023-05-23T02:35:56;68152.81;;;16.57;100.00
5988;BME280;3021;51.000;6.980;2023-05-23T02:38:24;68144.94;;;16.55;100.00
5988;BME280;3021;51.000;6.980;2023-05-23T02:40:51;68152.81;;;16.57;100.00
5988;BME280;3021;51.000;6.980;2023-05-23T02:43:18;68152.94;;;16.59;100.00
5988;BME280;3021;51.000;6.980;2023-05-23T02:45:44;68151.19;;;16.58;100.00
5988;BME280;3021;51.000;6.980;2023-05-23T02:48:09;68147.25;;;16.57;100.00
5988;BME280;3021;51.000;6.980;2023-05-23T02:50:36;68144.69;;;16.50;100.00
5988;BME280;3021;51.000;6.980;2023-05-23T02:53:01;68153.38;;;16.57;100.00
5988;BME280;3021;51.000;6.980;2023-05-23T02:55:26;68153.09;;;16.62;100.00
5988;BME280;3021;51.000;6.980;2023-05-23T02:57:52;68145.84;;;16.51;100.00
5988;BME280;3021;51.000;6.980;2023-05-23T03:00:18;68145.38;;;16.53;100.00
5988;BME280;3021;51.000;6.980;2023-05-23T03:02:43;68144.81;;;16.52;100.00
5988;BME280;3021;51.000;6.980;2023-05-23T03:05:09;68150.75;;;16.60;100.00
5988;BME280;3021;51.000;6.980;2023-05-23T03:07:34;68145.84;;;16.51;100.00
5988;BME280;3021;51.000;6.980;2023-05-23T03:10:00;68151.19;;;16.58;100.00
5988;BME280;3021;51.000;6.980;2023-05-23T03:12:29;68144.81;;;16.52;100.00
5988;BME280;3021;51.000;6.980;2023-05-23T03:14:54;68140.44;;;16.53;100.00
5988;BME280;3021;51.000;6.980;2023-05-23T03:17:19;68143.78;;;16.54;100.00
5988;BME280;3021;51.000;6.980;2023-05-23T03:19:45;68136.09;;;16.45;100.00
5988;BME280;3021;51.000;6.980;2023-05-23T03:22:10;68148.16;;;16.53;100.00
5988;BME280;3021;51.000;6.980;2023-05-23T03:24:35;68139.47;;;16.45;100.00
5988;BME280;3021;51.000;6.980;2023-05-23T03:27:01;68134.22;;;16.40;100.00
5988;BME280;3021;51.000;6.980;2023-05-23T03:29:27;68130.72;;;16.37;100.00
5988;BME280;3021;51.000;6.980;2023-05-23T03:31:52;68119.84;;;16.30;100.00
5988;BME280;3021;51.000;6.980;2023-05-23T03:34:17;68110.44;;;16.19;100.00
5988;BME280;3021;51.000;6.980;2023-05-23T03:36:43;68080.06;;;16.00;100.00
5988;BME280;3021;51.000;6.980;2023-05-23T03:39:08;68055.84;;;15.71;100.00
5988;BME280;3021;51.000;6.980;2023-05-23T03:41:33;68035.09;;;15.55;100.00
5988;BME280;3021;51.000;6.980;2023-05-23T03:43:59;68029.72;;;15.48;100.00
5988;BME280;3021;51.000;6.980;2023-05-23T03:46:25;68013.63;;;15.36;100.00
5988;BME280;3021;51.000;6.980;2023-05-23T03:48:50;68011.88;;;15.34;100.00
5988;BME280;3021;51.000;6.980;2023-05-23T03:51:16;68019.88;;;15.39;100.00
5988;BME280;3021;51.000;6.980;2023-05-23T03:53:41;68033.34;;;15.53;100.00
5988;BME280;3021;51.000;6.980;2023-05-23T03:56:06;68035.81;;;15.58;100.00
5988;BME280;3021;51.000;6.980;2023-05-23T03:58:32;68056.41;;;15.71;100.00
5988;BME280;3021;51.000;6.980;2023-05-23T04:00:57;68058.75;;;15.73;100.00
5988;BME280;3021;51.000;6.980;2023-05-23T04:03:23;68056.13;;;15.76;100.00
5988;BME280;3021;51.000;6.980;2023-05-23T04:05:50;68068.63;;;15.82;100.00
5988;BME280;3021;51.000;6.980;2023-05-23T04:08:15;68071.66;;;15.87;100.00
5988;BME280;3021;51.000;6.980;2023-05-23T04:10:41;68084.56;;;16.01;100.00
5988;BME280;3021;51.000;6.980;2023-05-23T04:13:06;68084.56;;;16.01;100.00
5988;BME280;3021;51.000;6.980;2023-05-23T04:15:33;68097.19;;;16.10;100.00
5988;BME280;3021;51.000;6.980;2023-05-23T04:17:59;68093.16;;;16.06;100.00
5988;BME280;3021;51.000;6.980;2023-05-23T04:20:24;68083.84;;;15.98;100.00
5988;BME280;3021;51.000;6.980;2023-05-23T04:22:50;68094.31;;;16.08;100.00
5988;BME280;3021;51.000;6.980;2023-05-23T04:25:15;68089.22;;;16.05;100.00
5988;BME280;3021;51.000;6.980;2023-05-23T04:27:42;68105.22;;;16.15;100.00
5988;BME280;3021;51.000;6.980;2023-05-23T04:30:08;68111.00;;;16.20;100.00
5988;BME280;3021;51.000;6.980;2023-05-23T04:32:34;68107.19;;;16.21;100.00
5988;BME280;3021;51.000;6.980;2023-05-23T04:35:00;68108.81;;;16.20;100.00
5988;BME280;3021;51.000;6.980;2023-05-23T04:37:28;68121.56;;;16.32;100.00
5988;BME280;3021;51.000;6.980;2023-05-23T04:39:54;68110.69;;;16.24;100.00
5988;BME280;3021;51.000;6.980;2023-05-23T04:42:19;68103.59;;;16.16;100.00
5988;BME280;3021;51.000;6.980;2023-05-23T04:44:49;68097.78;;;16.11;100.00
5988;BME280;3021;51.000;6.980;2023-05-23T04:47:14;68098.50;;;16.14;100.00
5988;BME280;3021;51.000;6.980;2023-05-23T04:49:39;68112.16;;;16.21;100.00
5988;BME280;3021;51.000;6.980;2023-05-23T04:52:06;68092.69;;;16.09;100.00
5988;BME280;3021;51.000;6.980;2023-05-23T04:54:31;68075.16;;;15.91;100.00
5988;BME280;3021;51.000;6.980;2023-05-23T04:56:57;68054.81;;;15.72;100.00
5988;BME280;3021;51.000;6.980;2023-05-23T04:59:23;68034.94;;;15.52;100.00
5988;BME280;3021;51.000;6.980;2023-05-23T05:01:48;68021.63;;;15.41;100.00
5988;BME280;3021;51.000;6.980;2023-05-23T05:04:13;68015.38;;;15.37;100.00
5988;BME280;3021;51.000;6.980;2023-05-23T05:06:40;68018.41;;;15.43;100.00
5988;BME280;3021;51.000;6.980;2023-05-23T05:09:05;68016.66;;;15.41;100.00
5988;BME280;3021;51.000;6.980;2023-05-23T05:11:30;68037.25;;;15.54;100.00
5988;BME280;3021;51.000;6.980;2023-05-23T05:13:56;68055.97;;;15.73;100.00
5988;BME280;3021;51.000;6.980;2023-05-23T05:16:21;68079.81;;;15.95;100.00
5988;BME280;3021;51.000;6.980;2023-05-23T05:18:46;68087.78;;;15.99;100.00
5988;BME280;3021;51.000;6.980;2023-05-23T05:21:12;68091.41;;;16.05;100.00
5988;BME280;3021;51.000;6.980;2023-05-23T05:23:37;68105.47;;;16.20;100.00
5988;BME280;3021;51.000;6.980;2023-05-23T05:26:02;68112.41;;;16.26;100.00
5988;BME280;3021;51.000;6.980;2023-05-23T05:28:29;68120.44;;;16.31;100.00
5988;BME280;3021;51.000;6.980;2023-05-23T05:30:54;68134.22;;;16.40;100.00
5988;BME280;3021;51.000;6.980;2023-05-23T05:33:21;68134.34;;;16.43;100.00
5988;BME280;3021;51.000;6.980;2023-05-23T05:35:48;68129.84;;;16.41;100.00
5988;BME280;3021;51.000;6.980;2023-05-23T05:38:15;68107.81;;;16.22;100.00
5988;BME280;3021;51.000;6.980;2023-05-23T05:40:40;68115.66;;;16.24;100.00
5988;BME280;3021;51.000;6.980;2023-05-23T05:43:05;68115.78;;;16.27;100.00
5988;BME280;3021;51.000;6.980;2023-05-23T05:45:31;68114.03;;;16.25;100.00
5988;BME280;3021;51.000;6.980;2023-05-23T05:47:57;68111.28;;;16.25;100.00
5988;BME280;3021;51.000;6.980;2023-05-23T05:50:22;68129.59;;;16.36;100.00
5988;BME280;3021;51.000;6.980;2023-05-23T05:52:48;68126.22;;;16.36;100.00
5988;BME280;3021;51.000;6.980;2023-05-23T05:55:13;68107.66;;;16.19;100.00
5988;BME280;3021;51.000;6.980;2023-05-23T05:57:39;68098.22;;;16.09;100.00
5988;BME280;3021;51.000;6.980;2023-05-23T06:00:07;68111.13;;;16.22;100.00
5988;BME280;3021;51.000;6.980;2023-05-23T06:02:43;68100.09;;;16.13;100.00
5988;BME280;3021;51.000;6.980;2023-05-23T06:05:11;68101.28;;;16.14;100.00
5988;BME280;3021;51.000;6.980;2023-05-23T06:07:37;68094.75;;;16.05;100.00
5988;BME280;3021;51.000;6.980;2023-05-23T06:10:03;68085.03;;;15.99;100.00
5988;BME280;3021;51.000;6.980;2023-05-23T06:12:29;68095.47;;;16.09;100.00
5988;BME280;3021;51.000;6.980;2023-05-23T06:14:54;68096.63;;;16.10;100.00
5988;BME280;3021;51.000;6.980;2023-05-23T06:17:19;68111.00;;;16.20;100.00
5988;BME280;3021;51.000;6.980;2023-05-23T06:19:45;68104.28;;;16.19;100.00
5988;BME280;3021;51.000;6.980;2023-05-23T06:22:10;68109.97;;;16.21;100.00
5988;BME280;3021;51.000;6.980;2023-05-23T06:24:35;68112.88;;;16.24;100.00
5988;BME280;3021;51.000;6.980;2023-05-23T06:27:01;68130.72;;;16.37;100.00
5988;BME280;3021;51.000;6.980;2023-05-23T06:29:26;68126.22;;;16.36;100.00
5988;BME280;3021;51.000;6.980;2023-05-23T06:31:51;68115.06;;;16.23;100.00
5988;BME280;3021;51.000;6.980;2023-05-23T06:34:16;68095.31;;;16.06;100.00
5988;BME280;3021;51.000;6.980;2023-05-23T06:36:42;68084.13;;;16.03;100.00
5988;BME280;3021;51.000;6.980;2023-05-23T06:39:08;68104.28;;;16.19;100.00
5988;BME280;3021;51.000;6.980;2023-05-23T06:41:34;68098.94;;;16.12;100.00
5988;BME280;3021;51.000;6.980;2023-05-23T06:44:00;68102.44;;;16.15;100.00
5988;BME280;3021;51.000;6.980;2023-05-23T06:46:25;68105.47;;;16.20;100.00
5988;BME280;3021;51.000;6.980;2023-05-23T06:48:50;68116.34;;;16.27;100.00
5988;BME280;3021;51.000;6.980;2023-05-23T06:51:16;68122.03;;;16.30;100.00
5988;BME280;3021;51.000;6.980;2023-05-23T06:53:41;68134.34;;;16.43;100.00
5988;BME280;3021;51.000;6.980;2023-05-23T06:56:06;68137.84;;;16.46;100.00
5988;BME280;3021;51.000;6.980;2023-05-23T06:58:31;68165.72;;;16.71;100.00
5988;BME280;3021;51.000;6.980;2023-05-23T07:00:57;68189.56;;;16.92;100.00
5988;BME280;3021;51.000;6.980;2023-05-23T07:03:22;68221.50;;;17.20;100.00
5988;BME280;3021;51.000;6.980;2023-05-23T07:05:47;68234.28;;;17.32;100.00
5988;BME280;3021;51.000;6.980;2023-05-23T07:08:13;68246.47;;;17.42;100.00
5988;BME280;3021;51.000;6.980;2023-05-23T07:10:38;68248.22;;;17.44;100.00
5988;BME280;3021;51.000;6.980;2023-05-23T07:13:05;68234.88;;;17.32;100.00
5988;BME280;3021;51.000;6.980;2023-05-23T07:15:30;68270.19;;;17.61;100.00
5988;BME280;3021;51.000;6.980;2023-05-23T07:17:56;68295.91;;;17.86;100.00
5988;BME280;3021;51.000;6.980;2023-05-23T07:20:21;68288.91;;;17.80;100.00
5988;BME280;3021;51.000;6.980;2023-05-23T07:22:46;68286.00;;;17.77;100.00
5988;BME280;3021;51.000;6.980;2023-05-23T07:25:12;68265.22;;;17.61;100.00
5988;BME280;3021;51.000;6.980;2023-05-23T07:27:37;68231.38;;;17.29;100.00
5988;BME280;3021;51.000;6.980;2023-05-23T07:30:03;68211.75;;;17.14;100.00
5988;BME280;3021;51.000;6.980;2023-05-23T07:32:29;68193.19;;;16.98;100.00
5988;BME280;3021;51.000;6.980;2023-05-23T07:34:55;68191.88;;;16.94;100.00
5988;BME280;3021;51.000;6.980;2023-05-23T07:37:20;68200.00;;;17.01;100.00
5988;BME280;3021;51.000;6.980;2023-05-23T07:39:45;68224.41;;;17.23;100.00
5988;BME280;3021;51.000;6.980;2023-05-23T07:42:11;68268.69;;;17.65;100.00
5988;BME280;3021;51.000;6.980;2023-05-23T07:44:36;68297.03;;;17.87;100.00
5988;BME280;3021;51.000;6.980;2023-05-23T07:47:02;68284.38;;;17.78;100.00
5988;BME280;3021;51.000;6.980;2023-05-23T07:49:29;68278.31;;;17.68;100.00
5988;BME280;3021;51.000;6.980;2023-05-23T07:51:54;68259.84;;;17.54;100.00
5988;BME280;3021;51.000;6.980;2023-05-23T07:54:20;68227.31;;;17.25;100.00
5988;BME280;3021;51.000;6.980;2023-05-23T07:56:45;68213.81;;;17.11;100.00
5988;BME280;3021;51.000;6.980;2023-05-23T07:59:11;68192.59;;;16.97;100.00
5988;BME280;3021;51.000;6.980;2023-05-23T08:01:37;68188.38;;;16.91;100.00
5988;BME280;3021;51.000;6.980;2023-05-23T08:04:02;68190.13;;;16.92;100.00
5988;BME280;3021;51.000;6.980;2023-05-23T08:06:28;68205.81;;;17.06;100.00
5988;BME280;3021;51.000;6.980;2023-05-23T08:08:53;68217.44;;;17.17;100.00
5988;BME280;3021;51.000;6.980;2023-05-23T08:11:18;68216.41;;;17.18;100.00
5988;BME280;3021;51.000;6.980;2023-05-23T08:13:43;68217.28;;;17.14;100.00
5988;BME280;3021;51.000;6.980;2023-05-23T08:16:09;68194.19;;;16.96;100.00
5988;BME280;3021;51.000;6.980;2023-05-23T08:18:34;68197.09;;;16.99;100.00
5988;BME280;3021;51.000;6.980;2023-05-23T08:21:00;68200.72;;;17.04;100.00
5988;BME280;3021;51.000;6.980;2023-05-23T08:23:27;68198.97;;;17.03;100.00
5988;BME280;3021;51.000;6.980;2023-05-23T08:25:53;68199.44;;;17.01;100.00
5988;BME280;3021;51.000;6.980;2023-05-23T08:28:18;68186.06;;;16.89;100.00
5988;BME280;3021;51.000;6.980;2023-05-23T08:30:44;68179.53;;;16.81;100.00
5988;BME280;3021;51.000;6.980;2023-05-23T08:33:09;68166.88;;;16.72;100.00
5988;BME280;3021;51.000;6.980;2023-05-23T08:35:34;68169.78;;;16.74;100.00
5988;BME280;3021;51.000;6.980;2023-05-23T08:38:03;68157.00;;;16.63;100.00
5988;BME280;3021;51.000;6.980;2023-05-23T08:40:30;68144.81;;;16.52;100.00
5988;BME280;3021;51.000;6.980;2023-05-23T08:42:56;68140.31;;;16.51;100.00
5988;BME280;3021;51.000;6.980;2023-05-23T08:45:21;68119.25;;;16.30;100.00
5988;BME280;3021;51.000;6.980;2023-05-23T08:47:47;68124.47;;;16.34;100.00
5988;BME280;3021;51.000;6.980;2023-05-23T08:50:16;68154.09;;;16.61;100.00
5988;BME280;3021;51.000;6.980;2023-05-23T08:52:53;68166.44;;;16.74;100.00
5988;BME280;3021;51.000;6.980;2023-05-23T08:55:23;68183.88;;;16.89;100.00
5988;BME280;3021;51.000;6.980;2023-05-23T08:57:51;68179.06;;;16.83;100.00
5988;BME280;3021;51.000;6.980;2023-05-23T09:00:18;68164.13;;;16.72;100.00
5988;BME280;3021;51.000;6.980;2023-05-23T09:02:44;68187.06;;;16.87;100.00
5988;BME280;3021;51.000;6.980;2023-05-23T09:05:10;68204.78;;;17.08;100.00
5988;BME280;3021;51.000;6.980;2023-05-23T09:07:36;68228.03;;;17.28;100.00
5988;BME280;3021;51.000;6.980;2023-05-23T09:10:06;68257.06;;;17.54;100.00
5988;BME280;3021;51.000;6.980;2023-05-23T09:12:33;68294.13;;;17.85;100.00
5988;BME280;3021;51.000;6.980;2023-05-23T09:15:00;68315.09;;;18.03;100.00
5988;BME280;3021;51.000;6.980;2023-05-23T09:17:26;68343.00;;;18.28;100.00
5988;BME280;3021;51.000;6.980;2023-05-23T09:19:51;68347.53;;;18.29;100.00
5988;BME280;3021;51.000;6.980;2023-05-23T09:22:23;68330.47;;;18.22;100.00
5988;BME280;3021;51.000;6.980;2023-05-23T09:24:50;68312.91;;;18.04;100.00
5988;BME280;3021;51.000;6.980;2023-05-23T09:27:16;68319.03;;;18.04;100.00
5988;BME280;3021;51.000;6.980;2023-05-23T09:29:41;68327.28;;;18.14;100.00
5988;BME280;3021;51.000;6.980;2023-05-23T09:32:12;68347.53;;;18.29;100.00
5988;BME280;3021;51.000;6.980;2023-05-23T09:34:57;68335.56;;;18.24;100.00
5988;BME280;3021;51.000;6.980;2023-05-23T09:37:34;68305.19;;;17.94;100.00
5988;BME280;3021;51.000;6.980;2023-05-23T09:40:02;68272.19;;;17.68;100.00
5988;BME280;3021;51.000;6.980;2023-05-23T09:42:31;68225.44;;;17.21;100.00
5988;BME280;3021;51.000;6.980;2023-05-23T09:44:58;68209.31;;;17.09;100.00
5988;BME280;3021;51.000;6.980;2023-05-23T09:47:24;68190.28;;;16.95;100.00
5988;BME280;3021;51.000;6.980;2023-05-23T09:49:50;68186.66;;;16.89;100.00
5988;BME280;3021;51.000;6.980;2023-05-23T09:52:15;68185.63;;;16.91;100.00
5988;BME280;3021;51.000;6.980;2023-05-23T09:54:42;68169.91;;;16.77;100.00
5988;BME280;3021;51.000;6.980;2023-05-23T09:57:09;68169.66;;;16.72;100.00
5988;BME280;3021;51.000;6.980;2023-05-23T09:59:39;68159.91;;;16.66;100.00
5988;BME280;3021;51.000;6.980;2023-05-23T10:02:06;68165.13;;;16.70;100.00
5988;BME280;3021;51.000;6.980;2023-05-23T10:04:33;68157.13;;;16.66;100.00
5988;BME280;3021;51.000;6.980;2023-05-23T10:07:05;68128.41;;;16.35;100.00
5988;BME280;3021;51.000;6.980;2023-05-23T10:09:34;68139.59;;;16.48;100.00
5988;BME280;3021;51.000;6.980;2023-05-23T10:15:01;68282.78;;;17.79;100.00
5988;BME280;3021;51.000;6.980;2023-05-23T10:20:09;68604.47;;;20.62;100.00
5988;BME280;3021;51.000;6.980;2023-05-23T10:22:36;68634.22;;;20.88;100.00
5988;BME280;3021;51.000;6.980;2023-05-23T10:25:03;68642.81;;;20.93;100.00
5988;BME280;3021;51.000;6.980;2023-05-23T10:27:30;68744.38;;;21.85;100.00
5988;BME280;3021;51.000;6.980;2023-05-23T10:29:56;68945.22;;;23.65;100.00
5988;BME280;3021;51.000;6.980;2023-05-23T10:32:23;69256.84;;;26.42;100.00
5988;BME280;3021;51.000;6.980;2023-05-23T10:35:00;69261.44;;;26.44;100.00
5988;BME280;3021;51.000;6.980;2023-05-23T10:37:38;69444.06;;;28.04;100.00
5988;BME280;3021;51.000;6.980;2023-05-23T10:47:43;68661.59;;;21.12;100.00
5988;BME280;3021;51.000;6.980;2023-05-23T10:50:12;68589.31;;;20.48;100.00
5988;BME280;3021;51.000;6.980;2023-05-23T10:52:40;68673.81;;;21.23;100.00
5988;BME280;3021;51.000;6.980;2023-05-23T10:55:13;68857.53;;;22.85;100.00
5988;BME280;3021;51.000;6.980;2023-05-23T10:57:39;68970.78;;;23.85;100.00
5988;BME280;3021;51.000;6.980;2023-05-23T11:00:12;68893.75;;;23.17;100.00
5988;BME280;3021;51.000;6.980;2023-05-23T11:02:46;68768.88;;;22.07;100.00
5988;BME280;3021;51.000;6.980;2023-05-23T11:05:19;68714.53;;;21.56;100.00
5988;BME280;3021;51.000;6.980;2023-05-23T11:07:45;68674.16;;;21.18;100.00
5988;BME280;3021;51.000;6.980;2023-05-23T11:10:12;68639.31;;;20.90;100.00
5988;BME280;3021;51.000;6.980;2023-05-23T11:12:44;68670.31;;;21.20;100.00
5988;BME280;3021;51.000;6.980;2023-05-23T11:17:49;68652.13;;;21.01;100.00
5988;BME280;3021;51.000;6.980;2023-05-23T11:20:15;68588.75;;;20.48;100.00
5988;BME280;3021;51.000;6.980;2023-05-23T11:22:53;68570.56;;;20.29;100.00
5988;BME280;3021;51.000;6.980;2023-05-23T11:25:19;68460.06;;;19.34;100.00
5988;BME280;3021;51.000;6.980;2023-05-23T11:27:48;68419.06;;;18.93;100.00
5988;BME280;3021;51.000;6.980;2023-05-23T11:30:15;68355.78;;;18.39;100.00
5988;BME280;3021;51.000;6.980;2023-05-23T11:32:49;68288.47;;;17.82;100.00
5988;BME280;3021;51.000;6.980;2023-05-23T11:35:15;68259.28;;;17.54;100.00
5988;BME280;3021;51.000;6.980;2023-05-23T11:37:40;68244.88;;;17.43;100.00
5988;BME280;3021;51.000;6.980;2023-05-23T11:42:50;68345.78;;;18.28;100.00
5988;BME280;3021;51.000;6.980;2023-05-23T11:45:18;68394.91;;;18.76;100.00
5988;BME280;3021;51.000;6.980;2023-05-23T11:47:44;68494.88;;;19.62;100.00
5988;BME280;3021;51.000;6.980;2023-05-23T11:50:09;68570.56;;;20.29;100.00
5988;BME280;3021;51.000;6.980;2023-05-23T11:52:35;68619.66;;;20.75;100.00
5988;BME280;3021;51.000;6.980;2023-05-23T11:55:00;68663.78;;;21.12;100.00
5988;BME280;3021;51.000;6.980;2023-05-23T11:57:26;68696.53;;;21.43;100.00
5988;BME280;3021;51.000;6.980;2023-05-23T11:59:51;68697.16;;;21.44;100.00
5988;BME280;3021;51.000;6.980;2023-05-23T12:02:18;68637.00;;;20.88;100.00
5988;BME280;3021;51.000;6.980;2023-05-23T12:04:44;68654.59;;;21.06;100.00
5988;BME280;3021;51.000;6.980;2023-05-23T12:07:09;68653.44;;;21.05;100.00
5988;BME280;3021;51.000;6.980;2023-05-23T12:09:42;68572.56;;;20.36;100.00
5988;BME280;3021;51.000;6.980;2023-05-23T12:12:08;68555.56;;;20.18;100.00
5988;BME280;3021;51.000;6.980;2023-05-23T12:14:33;68531.69;;;19.97;100.00
5988;BME280;3021;51.000;6.980;2023-05-23T12:16:59;68520.94;;;19.83;100.00
5988;BME280;3021;51.000;6.980;2023-05-23T12:19:24;68561.38;;;20.24;100.00
5988;BME280;3021;51.000;6.980;2023-05-23T12:21:50;68572.31;;;20.31;100.00
5988;BME280;3021;51.000;6.980;2023-05-23T12:24:19;68529.81;;;19.93;100.00
5988;BME280;3021;51.000;6.980;2023-05-23T12:26:49;68493.13;;;19.61;100.00
5988;BME280;3021;51.000;6.980;2023-05-23T12:29:17;68430.97;;;19.08;100.00
5988;BME280;3021;51.000;6.980;2023-05-23T12:31:43;68378.47;;;18.59;100.00
5988;BME280;3021;51.000;6.980;2023-05-23T12:34:10;68351.28;;;18.38;100.00
5988;BME280;3021;51.000;6.980;2023-05-23T12:36:35;68330.78;;;18.17;100.00
5988;BME280;3021;51.000;6.980;2023-05-23T12:39:04;68344.75;;;18.29;100.00
5988;BME280;3021;51.000;6.980;2023-05-23T12:41:33;68341.97;;;18.29;100.00
5988;BME280;3021;51.000;6.980;2023-05-23T12:43:59;68374.53;;;18.58;100.00
5988;BME280;3021;51.000;6.980;2023-05-23T12:46:25;68453.09;;;19.28;100.00
5988;BME280;3021;51.000;6.980;2023-05-23T12:48:52;68523.53;;;19.90;100.00
5988;BME280;3021;51.000;6.980;2023-05-23T12:51:18;68548.44;;;20.10;100.00
5988;BME280;3021;51.000;6.980;2023-05-23T12:53:46;68554.97;;;20.18;100.00
5988;BME280;3021;51.000;6.980;2023-05-23T12:56:12;68584.09;;;20.44;100.00
5988;BME280;3021;51.000;6.980;2023-05-23T12:58:37;68592.81;;;20.51;100.00
5988;BME280;3021;51.000;6.980;2023-05-23T13:01:03;68589.31;;;20.48;100.00
5988;BME280;3021;51.000;6.980;2023-05-23T13:03:29;68510.59;;;19.76;100.00
5988;BME280;3021;51.000;6.980;2023-05-23T13:05:55;68473.91;;;19.44;100.00
5988;BME280;3021;51.000;6.980;2023-05-23T13:08:22;68422.69;;;18.98;100.00
5988;BME280;3021;51.000;6.980;2023-05-23T13:10:47;68394.75;;;18.74;100.00
5988;BME280;3021;51.000;6.980;2023-05-23T13:13:13;68377.78;;;18.56;100.00
5988;BME280;3021;51.000;6.980;2023-05-23T13:15:39;68349.97;;;18.34;100.00
5988;BME280;3021;51.000;6.980;2023-05-23T13:18:05;68373.34;;;18.57;100.00
5988;BME280;3021;51.000;6.980;2023-05-23T13:20:30;68441.00;;;19.20;100.00
5988;BME280;3021;51.000;6.980;2023-05-23T13:22:56;68521.22;;;19.88;100.00
5988;BME280;3021;51.000;6.980;2023-05-23T13:25:22;68584.53;;;20.42;100.00
5988;BME280;3021;51.000;6.980;2023-05-23T13:27:48;68557.16;;;20.17;100.00
5988;BME280;3021;51.000;6.980;2023-05-23T13:30:13;68512.47;;;19.80;100.00